KNYG/NYG METAR and TAF weather

Enter ICAO airport designator
Station Type Date Time Source
KNYG METAR 2020/07/07 07:56 UTC NOAA

KNYG 070756Z AUTO 09008KT 10SM TS SCT014 BKN075 24/21 A3008 RMK AO2 TSE15B29B37B45 SLP186 T02390206


Station Type Date Time Source
KNYG Decoded METAR 2020/07/07 07:56 UTC NOAA

QUANTICO MARINE CORPS AIRFAC, VA, United States (KNYG) 38-30N 077-18W 3M
Jul 07, 2020 - 03:56 AM EDT / 2020.07.07 0756 UTC
Wind: from the E (090 degrees) at 9 MPH (8 KT):0
Visibility: 10 mile(s):0
Sky conditions: mostly cloudy
Weather: thunder
Temperature: 75.0 F (23.9 C)
Dew Point: 69.1 F (20.6 C)
Relative Humidity: 81%
Pressure (altimeter): 30.08 in. Hg (1018 hPa)
ob: KNYG 070756Z AUTO 09008KT 10SM TS SCT014 BKN075 24/21 A3008 RMK AO2 TSE15B29B37B45 SLP186 T02390206
cycle: 8

Station Type Date Time Source
KNYG TAF 2020/07/05 15:57 UTC NOAA

TAF KNYG 0515/0615 VRB06KT SCT030 BKN060 QNH2992INS
TEMPO 0519/0523 4800 TSRA BKN040CB
FM060000 VRB06KT 9999 SCT025 BKN035 QNH2994INS T33/0521Z T23/0611Z LAST NO AMENDS UNTIL 0709

Example: see airport list